Time;durP1;ratioP1;P1;durP2;ratioP2;P2;SDS_P1;SDS_P2;PMS_P1;PMS_P2;Temp;Humidity;BMP_temperature;BMP_pressure;BME280_temperature;BME280_humidity;BME280_pressure;Samples;Min_cycle;Max_cycle;Signal;HPM_P1;HPM_P2
2022/10/11 00:00:41;;;;;;;12.53;6.93;;;14.60;99.90;;;;;;10451802;28;20233;-77
2022/10/11 00:05:43;;;;;;;16.23;7.67;;;14.50;99.90;;;;;;10450554;28;20231;-76
2022/10/11 00:10:43;;;;;;;12.37;7.40;;;14.40;99.90;;;;;;10451493;28;20739;-75
2022/10/11 00:15:44;;;;;;;14.07;7.97;;;14.40;99.90;;;;;;10452162;28;20287;-74
2022/10/11 00:20:44;;;;;;;13.10;8.07;;;14.30;99.90;;;;;;10451262;28;20233;-74
2022/10/11 00:25:56;;;;;;;12.87;8.10;;;14.30;99.90;;;;;;10450176;28;20223;-73
2022/10/11 00:30:57;;;;;;;14.20;7.50;;;14.20;99.90;;;;;;10449626;28;21833;-76
2022/10/11 00:35:59;;;;;;;10.50;8.23;;;14.20;99.90;;;;;;10450539;28;20243;-72
2022/10/11 00:41:00;;;;;;;13.00;8.27;;;14.10;99.90;;;;;;10450749;28;20226;-72
2022/10/11 00:46:05;;;;;;;13.50;8.40;;;14.10;99.90;;;;;;10450589;28;20216;-72
2022/10/11 00:51:39;;;;;;;13.07;8.17;;;14.00;99.90;;;;;;10449325;28;20309;-73
2022/10/11 00:56:41;;;;;;;12.27;8.33;;;13.90;99.90;;;;;;10437700;28;20255;-75
2022/10/11 01:01:41;;;;;;;8.43;7.47;;;13.70;99.90;;;;;;10448413;28;20224;-73
2022/10/11 01:06:43;;;;;;;12.07;8.27;;;13.60;99.90;;;;;;10447724;28;20750;-72
2022/10/11 01:11:47;;;;;;;20.40;10.33;;;13.60;99.90;;;;;;10449424;28;20235;-73
2022/10/11 01:17:06;;;;;;;17.47;10.40;;;13.70;99.90;;;;;;10447294;28;20224;-70
2022/10/11 01:22:27;;;;;;;21.57;11.40;;;13.70;99.90;;;;;;10446694;28;20211;-71
2022/10/11 01:27:44;;;;;;;17.10;11.63;;;13.80;99.90;;;;;;10448319;28;20224;-71
2022/10/11 01:32:56;;;;;;;17.83;11.60;;;13.80;99.90;;;;;;10454544;28;20215;-72
2022/10/11 01:38:13;;;;;;;16.83;11.10;;;13.80;99.90;;;;;;10441611;28;20232;-71
2022/10/11 01:43:15;;;;;;;15.00;11.17;;;13.80;99.90;;;;;;10446050;28;20689;-71
2022/10/11 01:48:16;;;;;;;18.80;9.80;;;13.80;99.90;;;;;;10447587;28;20220;-71
2022/10/11 01:53:25;;;;;;;12.17;8.53;;;13.70;99.90;;;;;;10446972;28;20228;-70
2022/10/11 01:58:42;;;;;;;16.53;7.83;;;13.60;99.90;;;;;;10447437;28;20239;-72
2022/10/11 02:03:48;;;;;;;11.20;6.67;;;13.50;99.90;;;;;;10440820;28;20953;-70
2022/10/11 02:09:33;;;;;;;8.37;5.27;;;13.40;99.90;;;;;;10447190;28;20849;-71
2022/10/11 02:14:40;;;;;;;10.33;3.90;;;13.40;99.90;;;;;;10442517;28;20584;-72
2022/10/11 02:19:44;;;;;;;5.93;3.50;;;13.20;99.90;;;;;;10447711;28;20298;-71
2022/10/11 02:24:49;;;;;;;10.17;3.87;;;13.10;99.90;;;;;;10446708;28;20226;-72
2022/10/11 02:29:51;;;;;;;7.30;3.17;;;13.00;99.90;;;;;;10444761;28;20223;-72
2022/10/11 02:34:58;;;;;;;9.93;3.30;;;12.90;99.90;;;;;;10426825;28;20315;-70
2022/10/11 02:40:16;;;;;;;5.20;2.97;;;12.70;99.90;;;;;;10406843;28;20749;-70
2022/10/11 02:45:22;;;;;;;9.60;2.97;;;12.60;99.90;;;;;;10409452;28;20627;-70
2022/10/11 02:50:23;;;;;;;7.13;2.73;;;12.50;99.90;;;;;;10413777;28;20205;-70
2022/10/11 02:55:23;;;;;;;6.90;2.40;;;12.40;99.90;;;;;;10411493;28;20244;-71
2022/10/11 03:00:24;;;;;;;8.00;2.83;;;12.40;99.90;;;;;;10412612;28;20255;-72
2022/10/11 03:05:24;;;;;;;9.37;2.60;;;12.40;99.90;;;;;;10413125;28;20220;-73
2022/10/11 03:10:25;;;;;;;6.07;2.20;;;12.30;99.90;;;;;;10409656;28;20287;-72
2022/10/11 03:15:26;;;;;;;5.60;2.10;;;12.20;99.90;;;;;;10411347;28;20703;-72
2022/10/11 03:20:26;;;;;;;11.73;2.27;;;12.10;99.90;;;;;;10411695;28;21732;-72
2022/10/11 03:25:27;;;;;;;8.40;2.47;;;11.90;99.90;;;;;;10411756;28;20738;-71
2022/10/11 03:30:28;;;;;;;10.80;2.50;;;11.80;99.90;;;;;;10415240;28;20219;-70
2022/10/11 03:35:28;;;;;;;8.90;2.20;;;11.70;99.90;;;;;;10452529;28;20236;-70
2022/10/11 03:40:29;;;;;;;8.10;2.27;;;11.60;99.90;;;;;;10451353;28;20223;-71
2022/10/11 03:45:29;;;;;;;5.90;2.17;;;11.50;99.90;;;;;;10450528;28;20261;-70
2022/10/11 03:50:30;;;;;;;7.77;2.97;;;11.40;99.90;;;;;;10451672;28;20597;-71
2022/10/11 03:55:31;;;;;;;10.13;2.37;;;11.40;99.90;;;;;;10451706;28;20236;-71
2022/10/11 04:00:32;;;;;;;9.97;2.53;;;11.30;99.90;;;;;;10451954;28;20710;-72
2022/10/11 04:05:33;;;;;;;11.50;2.93;;;11.20;99.90;;;;;;10465498;28;20232;-71
2022/10/11 04:10:34;;;;;;;10.47;2.23;;;11.20;99.90;;;;;;10452074;28;20223;-71
2022/10/11 04:15:35;;;;;;;10.63;2.17;;;11.10;99.90;;;;;;10450371;28;20237;-72
2022/10/11 04:20:36;;;;;;;6.43;2.10;;;11.10;99.90;;;;;;10451144;28;20249;-72
2022/10/11 04:25:38;;;;;;;10.30;2.40;;;11.00;99.90;;;;;;10443478;28;20220;-70
2022/10/11 04:30:39;;;;;;;8.90;2.20;;;10.90;99.90;;;;;;10438402;28;20278;-71
2022/10/11 04:35:39;;;;;;;15.10;3.23;;;10.90;99.90;;;;;;10447432;28;20700;-71
2022/10/11 04:40:40;;;;;;;8.17;2.13;;;10.80;99.90;;;;;;10449387;28;20227;-71
2022/10/11 04:45:41;;;;;;;14.33;2.80;;;10.70;99.90;;;;;;10447264;28;20223;-71
2022/10/11 04:50:44;;;;;;;13.97;2.80;;;10.60;99.90;;;;;;10449640;28;20268;-76
2022/10/11 04:55:55;;;;;;;9.77;2.30;;;10.60;99.90;;;;;;10448268;28;20710;-74
2022/10/11 05:00:56;;;;;;;14.63;3.17;;;10.40;99.90;;;;;;10449994;28;20227;-67
2022/10/11 05:05:56;;;;;;;8.10;2.00;;;10.40;99.90;;;;;;10447123;28;20713;-69
2022/10/11 05:10:59;;;;;;;13.13;2.33;;;10.30;99.90;;;;;;10447802;28;20678;-68
2022/10/11 05:16:01;;;;;;;10.80;2.80;;;10.30;99.90;;;;;;10448743;28;20318;-71
2022/10/11 05:21:18;;;;;;;10.67;2.50;;;10.20;99.90;;;;;;10449735;28;20260;-69
2022/10/11 05:26:19;;;;;;;12.17;2.60;;;10.20;99.90;;;;;;10449064;28;20234;-68
2022/10/11 05:31:20;;;;;;;11.50;2.63;;;10.20;99.90;;;;;;10448096;28;20734;-74
2022/10/11 05:36:21;;;;;;;11.17;2.37;;;10.20;99.90;;;;;;10448850;28;20326;-73
2022/10/11 05:41:21;;;;;;;9.37;2.63;;;10.00;99.90;;;;;;10447617;28;20222;-75
2022/10/11 05:46:22;;;;;;;10.07;2.70;;;9.90;99.90;;;;;;10447234;28;20225;-73
2022/10/11 05:51:22;;;;;;;12.70;3.83;;;9.90;99.90;;;;;;10447479;28;20219;-74
2022/10/11 05:56:25;;;;;;;12.37;3.27;;;9.90;99.90;;;;;;10450794;28;20229;-74
2022/10/11 06:01:26;;;;;;;12.77;3.37;;;10.00;99.90;;;;;;10447861;28;20267;-73
2022/10/11 06:06:27;;;;;;;9.87;2.97;;;10.20;99.90;;;;;;10445859;28;20223;-74
2022/10/11 06:11:27;;;;;;;13.87;2.90;;;10.20;99.90;;;;;;10447368;28;20227;-73
2022/10/11 06:16:28;;;;;;;12.03;3.17;;;10.20;99.90;;;;;;10447999;28;20226;-74
2022/10/11 06:21:29;;;;;;;15.27;3.57;;;10.30;99.90;;;;;;10459874;28;20218;-75
2022/10/11 06:26:32;;;;;;;11.23;2.83;;;10.40;99.90;;;;;;10458834;28;20241;-75
2022/10/11 06:31:33;;;;;;;7.67;2.20;;;10.50;99.90;;;;;;10452702;28;20589;-74
2022/10/11 06:36:34;;;;;;;9.83;2.73;;;10.50;99.90;;;;;;10459622;28;20227;-74
2022/10/11 06:41:34;;;;;;;9.87;2.90;;;10.50;99.90;;;;;;10459726;28;20230;-73
2022/10/11 06:46:35;;;;;;;15.10;2.97;;;10.60;99.90;;;;;;10460927;28;20272;-74
2022/10/11 06:51:35;;;;;;;11.60;2.73;;;10.60;99.90;;;;;;10460689;28;20657;-74
2022/10/11 06:56:36;;;;;;;12.97;2.63;;;10.80;99.90;;;;;;10458633;28;20231;-74
2022/10/11 07:01:37;;;;;;;9.83;2.17;;;11.00;99.90;;;;;;10460962;28;20321;-74
2022/10/11 07:06:40;;;;;;;15.60;3.07;;;11.30;99.90;;;;;;10461306;28;20219;-75
2022/10/11 07:11:40;;;;;;;10.37;2.30;;;11.80;99.90;;;;;;10458826;28;20785;-74
2022/10/11 07:16:42;;;;;;;9.33;2.37;;;12.00;99.90;;;;;;10460164;28;20395;-74
2022/10/11 07:21:42;;;;;;;9.73;2.00;;;12.60;99.90;;;;;;10460388;28;20215;-74
2022/10/11 07:26:43;;;;;;;11.33;2.50;;;14.50;99.90;;;;;;10459124;28;20215;-75
2022/10/11 07:31:44;;;;;;;10.13;2.50;;;16.40;99.90;;;;;;10453245;28;20231;-76
2022/10/11 07:36:45;;;;;;;10.33;2.70;;;16.90;99.90;;;;;;10451568;28;20593;-75
2022/10/11 07:41:46;;;;;;;8.30;2.70;;;17.80;99.90;;;;;;10452224;28;20215;-76
2022/10/11 07:46:47;;;;;;;7.40;2.60;;;18.90;99.90;;;;;;10452007;28;20592;-75
2022/10/11 07:51:48;;;;;;;12.73;2.70;;;19.60;99.90;;;;;;10452378;28;20375;-76
2022/10/11 07:56:48;;;;;;;11.20;2.90;;;19.30;99.90;;;;;;10452126;28;20219;-75
2022/10/11 08:01:49;;;;;;;10.07;2.80;;;20.00;98.70;;;;;;10452116;28;20234;-74
2022/10/11 08:06:49;;;;;;;9.80;2.73;;;21.10;95.70;;;;;;10452309;28;20332;-74
2022/10/11 08:11:50;;;;;;;10.70;2.93;;;21.20;92.60;;;;;;10450802;28;20223;-75
2022/10/11 08:16:51;;;;;;;10.40;2.97;;;20.10;94.50;;;;;;10451770;28;20231;-75
2022/10/11 08:21:51;;;;;;;11.37;2.30;;;19.00;95.50;;;;;;10450490;28;20681;-76
2022/10/11 08:26:52;;;;;;;12.77;2.77;;;19.40;96.20;;;;;;10450826;28;20648;-76
2022/10/11 08:31:53;;;;;;;12.30;3.10;;;20.90;92.80;;;;;;10450506;28;20223;-75
2022/10/11 08:36:53;;;;;;;9.23;2.43;;;22.30;88.30;;;;;;10451245;28;20235;-75
2022/10/11 08:42:03;;;;;;;9.47;3.23;;;23.00;79.00;;;;;;10449177;28;20228;-75
2022/10/11 08:47:14;;;;;;;6.07;2.50;;;23.80;74.40;;;;;;10450625;28;20224;-75
2022/10/11 08:52:25;;;;;;;8.50;2.70;;;22.80;71.80;;;;;;10450052;28;20212;-75
2022/10/11 08:57:32;;;;;;;8.97;3.33;;;22.30;73.70;;;;;;10450655;28;20716;-76
2022/10/11 09:03:01;;;;;;;11.57;3.17;;;25.20;65.90;;;;;;10450113;28;20216;-75
2022/10/11 09:08:20;;;;;;;8.30;2.50;;;25.90;59.40;;;;;;10456742;28;20255;-75
2022/10/11 09:13:41;;;;;;;7.10;2.40;;;24.80;59.00;;;;;;10449170;28;20231;-75
2022/10/11 09:18:56;;;;;;;5.83;2.00;;;24.70;58.20;;;;;;10442356;28;20226;-75
2022/10/11 09:24:26;;;;;;;8.97;2.17;;;26.10;55.50;;;;;;10448923;28;20221;-75
2022/10/11 09:30:03;;;;;;;8.50;2.30;;;25.10;57.20;;;;;;10449501;28;20272;-75
2022/10/11 09:35:19;;;;;;;8.07;2.37;;;25.80;53.90;;;;;;10444866;28;20243;-76
2022/10/11 09:40:28;;;;;;;8.30;2.70;;;25.80;51.90;;;;;;10448216;28;20217;-75
2022/10/11 09:45:28;;;;;;;6.90;2.30;;;26.90;51.10;;;;;;10448777;28;20241;-73
2022/10/11 09:50:31;;;;;;;8.70;2.27;;;26.20;51.00;;;;;;10448271;28;20211;-74
2022/10/11 09:55:49;;;;;;;6.63;2.30;;;25.10;52.00;;;;;;10447195;28;20237;-75
2022/10/11 10:01:02;;;;;;;8.27;2.17;;;25.00;52.40;;;;;;10441514;28;20216;-76
2022/10/11 10:06:26;;;;;;;8.90;2.50;;;24.90;52.20;;;;;;10448308;28;20217;-74
2022/10/11 10:11:35;;;;;;;6.50;2.27;;;24.60;53.10;;;;;;10447915;28;20216;-74
2022/10/11 10:16:36;;;;;;;9.70;2.70;;;24.30;53.90;;;;;;10447338;28;20232;-74
2022/10/11 10:21:46;;;;;;;6.27;1.87;;;24.30;54.70;;;;;;10445418;28;20224;-74
2022/10/11 10:27:06;;;;;;;10.57;2.50;;;24.90;53.50;;;;;;10448103;28;20219;-75
2022/10/11 10:32:20;;;;;;;6.50;2.33;;;26.50;51.20;;;;;;10447298;28;20731;-75
2022/10/11 10:37:33;;;;;;;7.20;2.23;;;26.30;50.00;;;;;;10446929;28;20234;-75
2022/10/11 10:42:34;;;;;;;9.33;2.23;;;28.30;47.70;;;;;;10447372;28;20231;-75
2022/10/11 10:48:03;;;;;;;9.37;2.30;;;28.70;44.50;;;;;;10448267;28;20608;-75
2022/10/11 10:53:39;;;;;;;9.17;2.43;;;29.40;43.40;;;;;;10447510;28;20264;-75
2022/10/11 10:58:58;;;;;;;8.73;2.60;;;27.20;45.50;;;;;;10403245;28;20234;-75
2022/10/11 11:04:17;;;;;;;9.07;2.43;;;26.50;47.50;;;;;;10447402;28;20227;-75
2022/10/11 11:09:33;;;;;;;6.43;2.30;;;27.60;47.10;;;;;;10454766;28;20226;-75
2022/10/11 11:15:01;;;;;;;8.20;2.43;;;25.70;48.20;;;;;;10453597;28;20322;-74
2022/10/11 11:20:25;;;;;;;7.33;2.33;;;23.30;53.80;;;;;;10448403;28;20221;-74
2022/10/11 11:25:50;;;;;;;8.87;2.07;;;20.90;58.90;;;;;;10452601;28;20299;-74
2022/10/11 11:31:02;;;;;;;9.07;2.30;;;20.10;63.40;;;;;;10454224;28;20753;-75
2022/10/11 11:36:14;;;;;;;5.47;2.03;;;19.40;65.10;;;;;;10453729;28;20234;-74
2022/10/11 11:41:24;;;;;;;11.93;3.10;;;19.40;65.90;;;;;;10451755;28;20221;-74
2022/10/11 11:46:29;;;;;;;10.63;2.10;;;19.10;67.00;;;;;;10452122;28;20217;-74
2022/10/11 11:51:36;;;;;;;8.60;2.27;;;18.20;69.80;;;;;;10452048;28;20771;-74
2022/10/11 11:56:59;;;;;;;6.40;1.93;;;17.90;71.50;;;;;;10445257;28;20879;-74
2022/10/11 12:02:14;;;;;;;6.17;2.10;;;18.00;72.00;;;;;;10451623;28;20221;-74
2022/10/11 12:07:18;;;;;;;13.73;2.30;;;18.20;73.20;;;;;;10452002;28;20700;-74
2022/10/11 12:12:32;;;;;;;6.87;1.83;;;18.30;72.70;;;;;;10451147;28;20228;-73
2022/10/11 12:17:56;;;;;;;6.17;2.10;;;18.20;72.90;;;;;;10452240;28;20234;-73
2022/10/11 12:22:59;;;;;;;7.37;2.00;;;18.10;72.50;;;;;;10453392;28;20210;-74
2022/10/11 12:28:21;;;;;;;6.63;1.70;;;17.90;74.20;;;;;;10451406;28;20304;-73
2022/10/11 12:33:29;;;;;;;8.87;2.20;;;18.00;74.40;;;;;;10451877;28;20220;-73
2022/10/11 12:38:36;;;;;;;9.30;2.30;;;17.80;73.30;;;;;;10451820;28;20237;-74
2022/10/11 12:43:49;;;;;;;7.13;2.37;;;17.60;74.80;;;;;;10442523;28;20224;-74
2022/10/11 12:49:27;;;;;;;7.57;1.70;;;17.50;75.10;;;;;;10449860;28;20223;-74
2022/10/11 12:54:47;;;;;;;9.83;1.87;;;17.50;76.20;;;;;;10449225;28;20314;-74
2022/10/11 12:59:48;;;;;;;11.50;2.23;;;17.70;77.30;;;;;;10436741;28;20255;-74
2022/10/11 13:04:49;;;;;;;8.53;1.87;;;17.60;76.20;;;;;;10449264;28;20219;-74
2022/10/11 13:09:52;;;;;;;10.17;2.00;;;17.70;75.60;;;;;;10450166;28;20311;-74
2022/10/11 13:15:08;;;;;;;8.03;1.77;;;17.80;75.80;;;;;;10449911;28;20240;-75
2022/10/11 13:20:15;;;;;;;8.20;2.00;;;17.60;76.30;;;;;;10449379;28;20215;-74
2022/10/11 13:25:27;;;;;;;5.77;1.90;;;17.60;76.60;;;;;;10449861;28;20182;-74
2022/10/11 13:30:31;;;;;;;8.10;1.80;;;17.70;77.20;;;;;;10447885;28;20216;-73
2022/10/11 13:35:35;;;;;;;6.30;1.80;;;17.70;76.40;;;;;;10424781;28;20233;-74
2022/10/11 13:40:37;;;;;;;6.93;2.17;;;17.60;76.20;;;;;;10403525;28;20216;-74
2022/10/11 13:45:40;;;;;;;5.60;1.63;;;17.40;77.40;;;;;;10450401;28;20289;-74
2022/10/11 13:50:45;;;;;;;8.63;2.40;;;17.40;79.20;;;;;;10448721;28;20217;-73
2022/10/11 13:55:49;;;;;;;7.10;1.80;;;17.40;78.30;;;;;;10423349;28;20229;-74
2022/10/11 14:00:56;;;;;;;5.63;1.80;;;17.40;79.40;;;;;;10413663;28;20236;-74
2022/10/11 14:05:58;;;;;;;10.40;2.20;;;17.40;78.20;;;;;;10448661;28;20316;-74
2022/10/11 14:10:59;;;;;;;9.10;2.13;;;17.40;78.40;;;;;;10446697;28;20224;-73
2022/10/11 14:16:20;;;;;;;6.17;1.90;;;17.20;78.60;;;;;;10447495;28;20248;-74
2022/10/11 14:21:46;;;;;;;6.80;1.90;;;17.30;77.70;;;;;;10436227;28;20223;-75
2022/10/11 14:26:51;;;;;;;5.97;1.97;;;17.30;77.70;;;;;;10441192;28;20212;-74
2022/10/11 14:32:10;;;;;;;7.13;2.40;;;17.20;78.10;;;;;;10445926;28;20228;-73
2022/10/11 14:37:16;;;;;;;9.53;2.00;;;17.00;79.90;;;;;;10447332;28;20231;-74
2022/10/11 14:42:20;;;;;;;7.47;1.80;;;16.90;79.20;;;;;;10460004;28;20219;-74
2022/10/11 14:47:20;;;;;;;11.87;2.47;;;16.80;80.30;;;;;;10447439;28;20219;-74
2022/10/11 14:52:21;;;;;;;8.80;2.27;;;16.60;81.30;;;;;;10423784;28;20217;-75
2022/10/11 14:57:22;;;;;;;9.93;2.40;;;16.60;81.90;;;;;;10412897;28;20232;-74
2022/10/11 15:02:22;;;;;;;7.57;1.83;;;16.60;81.90;;;;;;10431798;28;20761;-75
2022/10/11 15:07:23;;;;;;;6.63;1.50;;;16.50;81.60;;;;;;10453952;28;20220;-75
2022/10/11 15:12:23;;;;;;;7.70;2.20;;;16.50;83.00;;;;;;10453033;28;20220;-74
2022/10/11 15:17:24;;;;;;;9.20;2.30;;;16.40;83.90;;;;;;10454434;28;20228;-74
2022/10/11 15:22:24;;;;;;;7.07;2.07;;;16.30;82.90;;;;;;10452119;28;20216;-74
2022/10/11 15:27:27;;;;;;;8.43;2.30;;;16.10;84.50;;;;;;10452853;28;20365;-74
2022/10/11 15:32:28;;;;;;;8.33;1.57;;;16.00;85.60;;;;;;10452158;28;20212;-74
2022/10/11 15:37:28;;;;;;;9.50;2.50;;;15.90;86.40;;;;;;10454173;28;20637;-75
2022/10/11 15:42:29;;;;;;;10.67;2.23;;;15.80;87.30;;;;;;10453165;28;20212;-73
2022/10/11 15:47:29;;;;;;;9.17;2.17;;;15.70;87.60;;;;;;10452782;28;20224;-73
2022/10/11 15:52:33;;;;;;;9.97;2.30;;;15.60;88.30;;;;;;10451261;28;20301;-74
2022/10/11 15:57:33;;;;;;;6.73;1.70;;;15.40;88.40;;;;;;10452674;28;20762;-74
2022/10/11 16:02:35;;;;;;;10.07;2.37;;;15.30;90.00;;;;;;10452736;28;20298;-74
2022/10/11 16:07:38;;;;;;;7.50;2.10;;;15.30;90.10;;;;;;10434122;28;20254;-74
2022/10/11 16:12:39;;;;;;;6.57;1.87;;;15.20;90.40;;;;;;10452165;28;20243;-73
2022/10/11 16:17:39;;;;;;;7.00;2.17;;;15.10;90.70;;;;;;10450592;28;20224;-73
2022/10/11 16:22:41;;;;;;;8.70;2.57;;;15.10;91.00;;;;;;10452137;28;20212;-74
2022/10/11 16:27:43;;;;;;;9.77;5.40;;;15.00;91.60;;;;;;10449946;28;20220;-73
2022/10/11 16:32:43;;;;;;;15.27;4.60;;;14.90;92.50;;;;;;10455605;28;20349;-73
2022/10/11 16:37:44;;;;;;;9.07;4.17;;;14.70;93.20;;;;;;10449626;28;20257;-73
2022/10/11 16:42:45;;;;;;;8.40;3.40;;;14.50;93.70;;;;;;10451045;28;20273;-74
2022/10/11 16:47:49;;;;;;;6.53;3.00;;;14.30;94.90;;;;;;10451271;28;20221;-73
2022/10/11 16:52:54;;;;;;;9.33;2.90;;;14.00;96.10;;;;;;10451295;28;20291;-73
2022/10/11 16:57:54;;;;;;;8.03;2.40;;;13.80;97.20;;;;;;10451224;28;20236;-73
2022/10/11 17:02:55;;;;;;;5.40;1.93;;;13.60;99.00;;;;;;10449465;28;20604;-73
2022/10/11 17:07:56;;;;;;;6.77;2.50;;;13.40;99.90;;;;;;10444100;28;20227;-75
2022/10/11 17:12:56;;;;;;;5.40;2.57;;;13.30;99.90;;;;;;10446687;28;20305;-75
2022/10/11 17:17:57;;;;;;;6.50;2.23;;;13.10;99.90;;;;;;10447878;28;20234;-74
2022/10/11 17:22:57;;;;;;;7.23;2.53;;;12.90;99.90;;;;;;10446652;28;20220;-74
2022/10/11 17:27:58;;;;;;;6.67;2.50;;;12.80;99.90;;;;;;10447901;28;20227;-74
2022/10/11 17:32:59;;;;;;;6.37;2.60;;;12.70;99.90;;;;;;10445658;28;20774;-75
2022/10/11 17:38:00;;;;;;;7.33;3.30;;;12.50;99.90;;;;;;10446182;28;20232;-73
2022/10/11 17:43:03;;;;;;;11.63;4.17;;;12.50;99.90;;;;;;10446072;28;20380;-74
2022/10/11 17:48:04;;;;;;;8.90;4.07;;;12.40;99.90;;;;;;10445701;28;20496;-73
2022/10/11 17:53:05;;;;;;;14.93;5.20;;;12.40;99.90;;;;;;10445857;28;20262;-74
2022/10/11 17:58:05;;;;;;;16.80;5.20;;;12.50;99.90;;;;;;10445166;28;20239;-74
2022/10/11 18:03:07;;;;;;;15.97;4.70;;;12.40;99.90;;;;;;10444703;28;20231;-73
2022/10/11 18:08:09;;;;;;;8.87;3.67;;;12.40;99.90;;;;;;10444513;28;20306;-74
2022/10/11 18:13:10;;;;;;;8.83;3.87;;;12.30;99.90;;;;;;10444426;28;20223;-73
2022/10/11 18:18:11;;;;;;;9.77;4.37;;;12.20;99.90;;;;;;10445405;28;20307;-73
2022/10/11 18:23:12;;;;;;;8.97;3.53;;;12.10;99.90;;;;;;10443851;28;20318;-73
2022/10/11 18:28:16;;;;;;;8.63;3.40;;;12.00;99.90;;;;;;10446102;28;20586;-74
2022/10/11 18:33:17;;;;;;;9.17;3.97;;;11.90;99.90;;;;;;10445427;28;20223;-74
2022/10/11 18:38:18;;;;;;;8.80;3.80;;;11.80;99.90;;;;;;10446280;28;20238;-73
2022/10/11 18:43:18;;;;;;;8.97;3.63;;;11.60;99.90;;;;;;10443880;28;20776;-74
2022/10/11 18:48:19;;;;;;;10.30;3.80;;;11.50;99.90;;;;;;10451008;28;20699;-74
2022/10/11 18:53:20;;;;;;;7.83;3.73;;;11.40;99.90;;;;;;10443032;28;20215;-73
2022/10/11 18:58:21;;;;;;;9.00;3.33;;;11.40;99.90;;;;;;10445174;28;20311;-75
2022/10/11 19:07:03;;;;;;;7.60;3.03;;;11.40;99.90;;;;;;10507350;28;20334;-76
2022/10/11 19:12:04;;;;;;;7.37;3.60;;;11.30;99.90;;;;;;10455809;28;20676;-75
2022/10/11 19:17:05;;;;;;;5.17;3.17;;;11.20;99.90;;;;;;10425397;28;20256;-73
2022/10/11 19:22:06;;;;;;;6.70;3.17;;;11.10;99.90;;;;;;10427367;28;20706;-71
2022/10/11 19:27:06;;;;;;;7.53;3.60;;;11.00;99.90;;;;;;10426424;28;20294;-70
2022/10/11 19:32:07;;;;;;;11.40;4.13;;;11.00;99.90;;;;;;10424260;28;20236;-73
2022/10/11 19:37:12;;;;;;;11.00;4.30;;;11.00;99.90;;;;;;10420476;28;20204;-75
2022/10/11 19:42:12;;;;;;;12.03;4.00;;;11.00;99.90;;;;;;10432294;28;20212;-74
2022/10/11 19:47:14;;;;;;;11.70;4.60;;;11.00;99.90;;;;;;10422770;28;20684;-73
2022/10/11 19:52:15;;;;;;;10.40;4.20;;;10.90;99.90;;;;;;10424906;28;20247;-75
2022/10/11 19:57:15;;;;;;;11.50;4.67;;;10.90;99.90;;;;;;10418545;28;20220;-75
2022/10/11 20:02:16;;;;;;;10.70;4.03;;;10.80;99.90;;;;;;10420640;28;20583;-73
2022/10/11 20:07:17;;;;;;;12.03;4.03;;;10.70;99.90;;;;;;10418763;28;20304;-74
2022/10/11 20:12:18;;;;;;;9.37;3.83;;;10.60;99.90;;;;;;10421470;28;20216;-72
2022/10/11 20:17:18;;;;;;;10.50;4.17;;;10.60;99.90;;;;;;10407871;28;20717;-74
2022/10/11 20:22:19;;;;;;;13.67;4.13;;;10.60;99.90;;;;;;10395736;28;20270;-73
2022/10/11 20:27:19;;;;;;;8.63;4.00;;;10.50;99.90;;;;;;10395311;28;20224;-71
2022/10/11 20:32:20;;;;;;;12.47;3.80;;;10.50;99.90;;;;;;10398970;28;20213;-72
2022/10/11 20:37:21;;;;;;;8.37;3.90;;;10.50;99.90;;;;;;10401725;28;20227;-73
2022/10/11 20:42:21;;;;;;;8.17;3.53;;;10.50;99.90;;;;;;10381349;28;20224;-73
2022/10/11 20:47:22;;;;;;;8.03;3.13;;;10.40;99.90;;;;;;10408650;28;20602;-73
2022/10/11 20:52:23;;;;;;;8.23;3.57;;;10.30;99.90;;;;;;10409535;28;20224;-77
2022/10/11 20:57:23;;;;;;;8.77;3.30;;;10.20;99.90;;;;;;10406766;28;20219;-74
2022/10/11 21:02:24;;;;;;;9.37;3.40;;;10.20;99.90;;;;;;10402566;28;20229;-73
2022/10/11 21:07:24;;;;;;;9.40;3.53;;;10.10;99.90;;;;;;10400180;28;20941;-73
2022/10/11 21:12:27;;;;;;;9.73;3.70;;;10.10;99.90;;;;;;10390563;28;20220;-74
2022/10/11 21:17:27;;;;;;;10.43;3.73;;;10.10;99.90;;;;;;10404727;28;20224;-74
2022/10/11 21:22:28;;;;;;;7.77;3.67;;;10.10;99.90;;;;;;10389204;28;20231;-74
2022/10/11 21:27:29;;;;;;;12.97;3.17;;;10.00;99.90;;;;;;10403194;28;20222;-74
2022/10/11 21:32:30;;;;;;;11.40;3.30;;;9.90;99.90;;;;;;10392687;28;20228;-74
2022/10/11 21:37:31;;;;;;;9.10;3.20;;;9.90;99.90;;;;;;10398684;28;20636;-72
2022/10/11 21:42:31;;;;;;;7.90;3.40;;;9.90;99.90;;;;;;10386636;28;20278;-73
2022/10/11 21:47:32;;;;;;;7.60;3.37;;;9.90;99.90;;;;;;10400582;28;20243;-73
2022/10/11 21:52:32;;;;;;;11.40;4.00;;;9.90;99.90;;;;;;10394930;28;20610;-73
2022/10/11 21:57:33;;;;;;;8.80;4.03;;;9.80;99.90;;;;;;10401977;28;20269;-73
2022/10/11 22:02:34;;;;;;;7.50;3.37;;;9.80;99.90;;;;;;10396302;28;20238;-74
2022/10/11 22:07:34;;;;;;;10.87;3.63;;;9.80;99.90;;;;;;10404170;28;20221;-74
2022/10/11 22:12:35;;;;;;;15.47;3.87;;;9.60;99.90;;;;;;10381948;28;20231;-74
2022/10/11 22:17:35;;;;;;;8.13;3.50;;;9.50;99.90;;;;;;10400157;28;20281;-74
2022/10/11 22:22:36;;;;;;;8.33;3.63;;;9.60;99.90;;;;;;10390228;28;20577;-74
2022/10/11 22:27:37;;;;;;;11.17;3.87;;;9.70;99.90;;;;;;10401998;28;20215;-73
2022/10/11 22:32:37;;;;;;;9.00;3.43;;;9.70;99.90;;;;;;10390494;28;20227;-74
2022/10/11 22:37:38;;;;;;;11.90;3.10;;;9.70;99.90;;;;;;10389583;28;20216;-74
2022/10/11 22:42:38;;;;;;;10.93;3.50;;;9.60;99.90;;;;;;10391908;28;20224;-73
2022/10/11 22:47:39;;;;;;;7.80;3.63;;;9.60;99.90;;;;;;10388925;28;20443;-74
2022/10/11 22:52:40;;;;;;;12.27;4.43;;;9.60;99.90;;;;;;10391677;28;20219;-75
2022/10/11 22:57:40;;;;;;;10.77;3.53;;;9.60;99.90;;;;;;10392483;28;20238;-75
2022/10/11 23:02:41;;;;;;;10.50;3.30;;;9.50;99.90;;;;;;10397735;28;20233;-75
2022/10/11 23:07:42;;;;;;;17.20;4.40;;;9.50;99.90;;;;;;10388926;28;20213;-75
2022/10/11 23:12:42;;;;;;;11.27;3.67;;;9.40;99.90;;;;;;10388711;28;20223;-75
2022/10/11 23:17:43;;;;;;;9.70;3.83;;;9.40;99.90;;;;;;10387226;28;20222;-74
2022/10/11 23:22:43;;;;;;;13.63;4.27;;;9.40;99.90;;;;;;10397123;28;20226;-74
2022/10/11 23:27:44;;;;;;;11.20;4.00;;;9.40;99.90;;;;;;10388377;28;20223;-74
2022/10/11 23:32:45;;;;;;;13.23;4.10;;;9.40;99.90;;;;;;10390652;28;20219;-74
2022/10/11 23:37:45;;;;;;;9.07;3.97;;;9.30;99.90;;;;;;10396095;28;20274;-73
2022/10/11 23:42:46;;;;;;;10.77;4.07;;;9.20;99.90;;;;;;10412296;28;20228;-74
2022/10/11 23:47:46;;;;;;;12.70;3.83;;;9.20;99.90;;;;;;10398918;28;20205;-74
2022/10/11 23:52:47;;;;;;;12.70;4.30;;;9.10;99.90;;;;;;10396270;28;20709;-74
2022/10/11 23:57:47;;;;;;;12.53;4.03;;;9.00;99.90;;;;;;10394274;28;20274;-74
